Black Rock, Arkansas
Current Conditions -  °F | °C
As of 1:35 PM on Friday 31 Oct 2014 (Local Time) from KARG Reporting Station
Scattered Clouds Scattered Clouds  
Wind Chill: 59°   Ceiling: Unl
Heat Index: 59°   Visibility: 10mi
Dew Point: 32°   Wind: 24mph
Humidity: 36%   Direction: 340°NNW
Pressure: 30.19"   Gusts: 29mph
Location:  36.11°N, 91.1°W
Report Text: KARG 311835Z AUTO 34021G25KT 10SM SCT060 15/00 A3019 RMK AO1
Loading
Personal Weather Stations






























Interactive Weather Map New forecast layout! Learn more

10-Day Weather Forecast

Advertisements
Track Severe Weather on mobile